createdAt,value
2023-01-04T00:01:24.185Z,11.18
2023-01-04T00:03:52.688Z,13.23
2023-01-04T00:06:21.294Z,14.18
2023-01-04T00:08:49.483Z,9.15
2023-01-04T00:11:19.701Z,16.58
2023-01-04T00:13:48.419Z,12.25
2023-01-04T00:16:18.807Z,8.73
2023-01-04T00:18:48.870Z,13.85
2023-01-04T00:21:18.255Z,16.83
2023-01-04T00:23:47.411Z,17.50
2023-01-04T00:26:17.674Z,6.80
2023-01-04T00:28:53.737Z,12.95
2023-01-04T00:31:23.009Z,9.75
2023-01-04T00:33:54.298Z,15.60
2023-01-04T00:36:22.916Z,21.27
2023-01-04T00:39:07.681Z,12.32
2023-01-04T00:44:26.332Z,10.65
2023-01-04T00:46:54.590Z,10.02
2023-01-04T00:49:24.294Z,13.95
2023-01-04T00:51:52.254Z,6.22
2023-01-04T00:54:20.508Z,15.63
2023-01-04T00:56:48.900Z,15.10
2023-01-04T00:59:19.316Z,12.68
2023-01-04T01:01:47.655Z,11.63
2023-01-04T01:04:18.165Z,18.77
2023-01-04T01:06:48.222Z,12.80
2023-01-04T01:09:17.223Z,13.52
2023-01-04T01:11:45.373Z,12.48
2023-01-04T01:14:17.581Z,10.30
2023-01-04T01:16:54.865Z,11.88
2023-01-04T01:19:24.137Z,9.45
2023-01-04T01:21:54.505Z,12.38
2023-01-04T01:24:22.525Z,12.48
2023-01-04T01:26:50.514Z,13.68
2023-01-04T01:29:18.589Z,15.30
2023-01-04T01:31:46.503Z,10.02
2023-01-04T01:34:14.893Z,7.45
2023-01-04T01:36:44.350Z,8.30
2023-01-04T01:39:14.071Z,8.70
2023-01-04T01:41:43.049Z,9.38
2023-01-04T01:44:45.297Z,9.75
2023-01-04T01:47:15.985Z,14.93
2023-01-04T01:49:45.694Z,9.10
2023-01-04T01:52:19.659Z,8.38
2023-01-04T01:54:55.075Z,9.80
2023-01-04T01:57:27.188Z,8.15
2023-01-04T01:59:59.125Z,13.65
2023-01-04T02:02:27.348Z,6.78
2023-01-04T02:04:56.693Z,7.25
2023-01-04T02:07:28.370Z,10.32
2023-01-04T02:09:59.324Z,8.93
2023-01-04T02:12:27.415Z,7.70
2023-01-04T02:14:55.301Z,8.52
2023-01-04T02:17:33.655Z,7.25
2023-01-04T02:20:26.922Z,10.23
2023-01-04T02:23:36.989Z,5.32
2023-01-04T02:26:37.658Z,7.68
2023-01-04T02:29:32.815Z,6.40
2023-01-04T02:32:04.750Z,11.95
2023-01-04T02:34:42.359Z,6.80
2023-01-04T02:37:19.716Z,5.50
2023-01-04T02:39:54.020Z,6.22
2023-01-04T02:42:50.156Z,6.50
2023-01-04T02:45:20.491Z,4.97
2023-01-04T02:48:07.613Z,2.97
2023-01-04T02:50:41.438Z,5.90
2023-01-04T02:53:13.134Z,1.35
2023-01-04T02:55:49.448Z,3.83
2023-01-04T02:58:32.786Z,3.45
2023-01-04T03:01:24.751Z,3.13
2023-01-04T03:04:24.765Z,4.82
2023-01-04T03:07:00.852Z,1.55
2023-01-04T03:09:32.882Z,2.67
2023-01-04T03:12:23.554Z,6.85
2023-01-04T03:14:53.414Z,2.22
2023-01-04T03:17:24.641Z,4.43
2023-01-04T03:19:56.159Z,1.48
2023-01-04T03:22:51.668Z,1.55
2023-01-04T03:25:42.372Z,1.42
2023-01-04T03:28:32.068Z,3.50
2023-01-04T03:31:23.035Z,1.50
2023-01-04T03:34:08.650Z,1.30
2023-01-04T03:36:47.190Z,1.08
2023-01-04T03:39:40.304Z,1.38
2023-01-04T03:42:32.991Z,1.55
2023-01-04T03:45:31.983Z,1.42
2023-01-04T03:48:26.881Z,1.05
2023-01-04T03:51:01.516Z,0.60
2023-01-04T03:53:32.397Z,1.55
2023-01-04T03:56:01.642Z,1.50
2023-01-04T03:58:29.729Z,2.75
2023-01-04T04:01:03.374Z,1.08
2023-01-04T04:03:49.743Z,2.42
2023-01-04T04:06:35.853Z,1.15
2023-01-04T04:09:05.687Z,1.33
2023-01-04T04:11:33.585Z,1.50
2023-01-04T04:14:02.096Z,2.20
2023-01-04T04:16:30.210Z,1.75
2023-01-04T04:19:01.840Z,2.03
2023-01-04T04:21:32.594Z,1.58
2023-01-04T04:24:00.468Z,1.77
2023-01-04T04:26:29.701Z,2.42
2023-01-04T04:28:57.813Z,2.00
2023-01-04T04:31:25.759Z,4.40
2023-01-04T04:33:53.889Z,2.63
2023-01-04T04:36:21.953Z,2.20
2023-01-04T04:38:49.820Z,2.10
2023-01-04T04:41:35.373Z,1.80
2023-01-04T04:44:04.936Z,2.28
2023-01-04T04:46:32.823Z,2.83
2023-01-04T04:49:00.796Z,2.53
2023-01-04T04:51:28.859Z,4.25
2023-01-04T04:53:56.965Z,4.30
2023-01-04T04:56:24.868Z,3.05
2023-01-04T04:58:52.777Z,4.70
2023-01-04T05:01:22.305Z,2.83
2023-01-04T05:03:50.520Z,3.78
2023-01-04T05:06:18.425Z,3.58
2023-01-04T05:08:46.391Z,3.50
2023-01-04T05:11:15.052Z,3.33
2023-01-04T05:13:42.127Z,3.85
2023-01-04T05:16:11.267Z,3.85
2023-01-04T05:18:40.632Z,3.10
2023-01-04T05:21:08.527Z,5.82
2023-01-04T05:23:36.467Z,4.63
2023-01-04T05:26:05.000Z,4.32
2023-01-04T05:28:33.091Z,5.50
2023-01-04T05:31:00.273Z,2.92
2023-01-04T05:33:30.365Z,3.67
2023-01-04T05:36:01.976Z,5.03
2023-01-04T05:38:30.411Z,4.43
2023-01-04T05:40:58.458Z,3.95
2023-01-04T05:43:26.572Z,3.53
2023-01-04T05:45:56.254Z,3.67
2023-01-04T05:48:26.059Z,4.22
2023-01-04T05:50:54.824Z,3.10
2023-01-04T05:53:24.041Z,9.38
2023-01-04T05:55:52.173Z,4.03
2023-01-04T05:58:20.058Z,2.38
2023-01-04T06:00:48.051Z,3.72
2023-01-04T06:03:16.349Z,1.85
2023-01-04T06:05:44.429Z,2.67
2023-01-04T06:08:12.322Z,2.95
2023-01-04T06:10:41.824Z,1.38
2023-01-04T06:13:09.914Z,1.98
2023-01-04T06:15:43.039Z,3.92
2023-01-04T06:20:44.493Z,2.45
2023-01-04T06:23:12.458Z,4.32
2023-01-04T06:25:41.958Z,3.03
2023-01-04T06:28:10.031Z,4.43
2023-01-04T06:30:38.266Z,3.38
2023-01-04T06:33:06.566Z,5.15
2023-01-04T06:35:36.018Z,2.92
2023-01-04T06:38:04.134Z,2.88
2023-01-04T06:40:32.336Z,5.15
2023-01-04T06:43:01.636Z,4.93
2023-01-04T06:45:29.618Z,3.50
2023-01-04T06:47:57.589Z,2.05
2023-01-04T06:50:25.781Z,2.35
2023-01-04T06:52:53.799Z,1.40
2023-01-04T06:55:22.015Z,4.38
2023-01-04T06:57:52.893Z,1.35
2023-01-04T07:00:24.791Z,1.67
2023-01-04T07:03:14.598Z,3.50
2023-01-04T07:05:41.225Z,1.77
2023-01-04T07:08:09.425Z,3.03
2023-01-04T07:10:37.754Z,3.13
2023-01-04T07:13:06.390Z,2.80
2023-01-04T07:15:38.292Z,4.00
2023-01-04T07:18:08.521Z,6.05
2023-01-04T07:20:36.761Z,9.18
2023-01-04T07:23:05.623Z,4.13
2023-01-04T07:25:33.639Z,5.03
2023-01-04T07:28:01.788Z,6.57
2023-01-04T07:30:29.958Z,12.75
2023-01-04T07:32:59.340Z,8.45
2023-01-04T07:35:27.958Z,8.80
2023-01-04T07:37:58.941Z,3.55
2023-01-04T07:40:28.024Z,5.00
2023-01-04T07:42:58.218Z,3.60
2023-01-04T07:45:27.600Z,5.38
2023-01-04T07:47:55.938Z,6.90
2023-01-04T07:50:25.419Z,4.10
2023-01-04T07:52:53.435Z,7.20
2023-01-04T07:55:21.765Z,6.05
2023-01-04T07:57:49.797Z,4.93
2023-01-04T08:00:18.592Z,8.02
2023-01-04T08:02:46.877Z,5.05
2023-01-04T08:05:15.339Z,5.18
2023-01-04T08:07:45.091Z,3.10
2023-01-04T08:10:13.099Z,5.13
2023-01-04T08:12:41.057Z,2.90
2023-01-04T08:15:09.766Z,7.07
2023-01-04T08:17:37.805Z,4.15
2023-01-04T08:20:07.570Z,7.68
2023-01-04T08:22:35.477Z,3.00
2023-01-04T08:25:07.278Z,2.47
2023-01-04T08:27:35.285Z,7.20
2023-01-04T08:30:03.584Z,3.85
2023-01-04T08:32:31.854Z,2.40
2023-01-04T08:34:59.950Z,3.47
2023-01-04T08:37:28.434Z,6.78
2023-01-04T08:39:56.683Z,4.18
2023-01-04T08:42:31.011Z,2.17
2023-01-04T08:45:01.540Z,8.40
2023-01-04T08:47:32.237Z,7.50
2023-01-04T08:50:06.369Z,3.45
2023-01-04T08:52:38.153Z,1.13
2023-01-04T08:55:12.577Z,6.93
2023-01-04T08:57:43.001Z,4.28
2023-01-04T09:00:12.324Z,3.83
2023-01-04T09:02:40.667Z,6.15
2023-01-04T09:05:09.429Z,4.35
2023-01-04T09:07:37.344Z,4.45
2023-01-04T09:10:06.242Z,8.10
2023-01-04T09:12:34.402Z,2.35
2023-01-04T09:15:04.706Z,11.32
2023-01-04T09:17:32.761Z,7.55
2023-01-04T09:20:00.796Z,6.82
2023-01-04T09:22:28.764Z,8.35
2023-01-04T09:24:56.776Z,7.45
2023-01-04T09:27:25.627Z,6.93
2023-01-04T09:29:54.703Z,9.25
2023-01-04T09:32:24.153Z,7.25
2023-01-04T09:34:52.335Z,7.32
2023-01-04T09:37:21.483Z,10.80
2023-01-04T09:39:49.765Z,14.02
2023-01-04T09:42:23.642Z,14.18
2023-01-04T09:45:22.637Z,11.15
2023-01-04T09:47:47.267Z,11.18
2023-01-04T09:50:19.825Z,20.60
2023-01-04T09:52:58.932Z,13.13
2023-01-04T09:55:39.629Z,22.08
2023-01-04T09:58:17.910Z,19.10
2023-01-04T10:00:50.434Z,13.43
2023-01-04T10:03:25.042Z,19.08
2023-01-04T10:05:55.835Z,18.85
2023-01-04T10:08:24.419Z,24.75
2023-01-04T10:11:03.592Z,16.95
2023-01-04T10:13:48.044Z,16.75
2023-01-04T10:17:01.063Z,22.90
2023-01-04T10:22:26.280Z,17.98
2023-01-04T10:25:07.198Z,32.72
2023-01-04T10:27:44.093Z,25.40
2023-01-04T10:30:31.202Z,21.73
2023-01-04T10:33:11.159Z,27.30
2023-01-04T10:35:43.582Z,27.75
2023-01-04T10:38:18.061Z,30.10
2023-01-04T10:40:48.697Z,39.97
2023-01-04T10:43:23.646Z,25.42
2023-01-04T10:46:01.095Z,40.28
2023-01-04T10:48:40.306Z,40.55
2023-01-04T10:51:10.778Z,32.88
2023-01-04T10:53:45.862Z,37.70
2023-01-04T10:56:24.125Z,31.80
2023-01-04T10:59:04.392Z,40.53
2023-01-04T11:01:36.979Z,29.95
2023-01-04T11:04:12.965Z,37.67
2023-01-04T11:06:47.965Z,36.88
2023-01-04T11:09:25.084Z,31.58
2023-01-04T11:11:57.684Z,38.00
2023-01-04T11:14:27.714Z,37.33
2023-01-04T11:17:02.362Z,50.28
2023-01-04T11:19:31.078Z,32.47
2023-01-04T11:22:06.106Z,34.15
2023-01-04T11:24:35.524Z,33.65
2023-01-04T11:27:08.899Z,33.60
2023-01-04T11:29:42.660Z,29.80
2023-01-04T11:32:20.826Z,30.17
2023-01-04T11:34:52.101Z,22.20
2023-01-04T11:37:29.808Z,33.28
2023-01-04T11:40:21.151Z,26.40
2023-01-04T11:42:51.515Z,26.13
2023-01-04T11:45:23.885Z,24.00
2023-01-04T11:47:54.693Z,32.07
2023-01-04T11:50:40.668Z,35.80
2023-01-04T11:53:27.470Z,41.10
2023-01-04T11:56:17.043Z,42.80
2023-01-04T11:59:02.141Z,35.75
2023-01-04T12:01:30.563Z,45.78
2023-01-04T12:04:00.127Z,30.58
2023-01-04T12:06:37.624Z,36.55
2023-01-04T12:09:07.451Z,28.38
2023-01-04T12:11:38.517Z,29.73
2023-01-04T12:14:20.904Z,42.90
2023-01-04T12:16:54.850Z,22.73
2023-01-04T12:19:23.486Z,30.67
2023-01-04T12:21:54.457Z,31.33
2023-01-04T12:24:27.307Z,28.63
2023-01-04T12:26:56.075Z,30.42
2023-01-04T12:29:47.056Z,25.85
2023-01-04T12:32:46.473Z,22.40
2023-01-04T12:36:03.119Z,28.00
2023-01-04T12:39:00.443Z,34.60
2023-01-04T12:42:17.927Z,29.25
2023-01-04T12:45:03.524Z,23.38
2023-01-04T12:47:59.897Z,16.30
2023-01-04T12:50:31.012Z,19.58
2023-01-04T12:53:29.047Z,14.93
2023-01-04T12:55:54.296Z,22.40
2023-01-04T12:59:15.328Z,18.77
2023-01-04T13:01:32.009Z,28.17
2023-01-04T13:04:05.547Z,19.95
2023-01-04T13:06:43.950Z,17.55
2023-01-04T13:09:24.511Z,17.42
2023-01-04T13:12:09.397Z,16.92
2023-01-04T13:14:41.522Z,21.73
2023-01-04T13:17:19.129Z,25.63
2023-01-04T13:19:48.483Z,12.93
2023-01-04T13:22:29.553Z,17.40
2023-01-04T13:25:00.154Z,25.98
2023-01-04T13:27:28.827Z,20.33
2023-01-04T13:29:56.732Z,20.15
2023-01-04T13:32:28.806Z,30.00
2023-01-04T13:34:59.741Z,26.58
2023-01-04T13:37:31.141Z,21.20
2023-01-04T13:40:17.900Z,20.38
2023-01-04T13:42:49.045Z,29.58
2023-01-04T13:45:32.667Z,18.17
2023-01-04T13:48:06.220Z,28.15
2023-01-04T13:50:37.868Z,36.28
2023-01-04T13:53:08.487Z,38.63
2023-01-04T13:55:39.045Z,25.30
2023-01-04T13:58:16.887Z,27.95
2023-01-04T14:00:47.570Z,29.77
2023-01-04T14:03:34.170Z,23.88
2023-01-04T14:06:18.925Z,31.27
2023-01-04T14:08:54.553Z,27.48
2023-01-04T14:11:43.315Z,28.40
2023-01-04T14:14:30.775Z,23.75
2023-01-04T14:17:17.754Z,25.08
2023-01-04T14:19:49.914Z,21.45
2023-01-04T14:22:29.191Z,35.17
2023-01-04T14:25:15.311Z,29.25
2023-01-04T14:27:44.022Z,27.38
2023-01-04T14:30:25.355Z,29.83
2023-01-04T14:32:58.838Z,30.35
2023-01-04T14:35:30.396Z,34.72
2023-01-04T14:38:04.645Z,28.95
2023-01-04T14:40:34.231Z,30.27
2023-01-04T14:43:02.889Z,31.25
2023-01-04T14:45:31.813Z,30.40
2023-01-04T14:47:59.999Z,23.85
2023-01-04T14:50:29.604Z,23.27
2023-01-04T14:52:57.859Z,34.35
2023-01-04T14:55:25.985Z,30.60
2023-01-04T14:57:53.899Z,27.90
2023-01-04T15:00:21.807Z,29.45
2023-01-04T15:02:51.881Z,23.58
2023-01-04T15:05:20.769Z,29.80
2023-01-04T15:07:50.609Z,33.08
2023-01-04T15:10:23.943Z,33.90
2023-01-04T15:12:52.161Z,36.30
2023-01-04T15:15:20.932Z,43.75
2023-01-04T15:17:49.255Z,30.67
2023-01-04T15:20:17.396Z,32.45
2023-01-04T15:22:45.929Z,37.67
2023-01-04T15:25:15.460Z,38.53
2023-01-04T15:27:43.540Z,32.38
2023-01-04T15:30:12.528Z,36.25
2023-01-04T15:32:41.063Z,33.50
2023-01-04T15:35:09.540Z,35.03
2023-01-04T15:37:37.733Z,35.17
2023-01-04T15:40:06.887Z,30.30
2023-01-04T15:42:53.844Z,36.80
2023-01-04T15:45:23.809Z,36.97
2023-01-04T15:47:52.947Z,29.90
2023-01-04T15:50:21.495Z,36.00
2023-01-04T15:52:49.547Z,29.98
2023-01-04T15:55:17.805Z,35.85
2023-01-04T15:57:47.210Z,33.28
2023-01-04T16:00:16.351Z,36.10
2023-01-04T16:02:44.631Z,29.92
2023-01-04T16:05:12.910Z,32.35
2023-01-04T16:07:40.854Z,31.00
2023-01-04T16:10:09.614Z,29.45
2023-01-04T16:12:44.469Z,32.55
2023-01-04T16:15:16.032Z,28.20
2023-01-04T16:17:45.598Z,43.85
2023-01-04T16:20:15.195Z,35.72
2023-01-04T16:22:43.697Z,41.55
2023-01-04T16:25:12.884Z,33.03
2023-01-04T16:27:41.194Z,29.60
2023-01-04T16:30:13.657Z,31.23
2023-01-04T16:32:44.512Z,37.27
2023-01-04T16:35:13.380Z,38.88
2023-01-04T16:37:43.036Z,36.10
2023-01-04T16:40:12.332Z,35.53
2023-01-04T16:42:40.571Z,37.47
2023-01-04T16:45:10.056Z,43.85
2023-01-04T16:47:40.672Z,35.03
2023-01-04T16:50:10.829Z,46.40
2023-01-04T16:52:39.179Z,35.72
2023-01-04T16:55:08.471Z,32.22
2023-01-04T16:57:36.616Z,37.42
2023-01-04T17:00:06.109Z,34.08
2023-01-04T17:02:34.080Z,44.42
2023-01-04T17:05:02.238Z,34.85
2023-01-04T17:07:33.134Z,45.85
2023-01-04T17:10:01.829Z,39.55
2023-01-04T17:12:47.476Z,42.15
2023-01-04T17:18:04.310Z,41.38
2023-01-04T17:20:32.256Z,39.70
2023-01-04T17:23:01.898Z,36.65
2023-01-04T17:25:30.252Z,35.97
2023-01-04T17:27:58.378Z,36.38
2023-01-04T17:30:26.484Z,39.60
2023-01-04T17:32:54.663Z,40.20
2023-01-04T17:35:22.601Z,33.42
2023-01-04T17:37:50.789Z,40.22
2023-01-04T17:40:23.212Z,34.63
2023-01-04T17:42:51.870Z,45.08
2023-01-04T17:45:20.434Z,37.50
2023-01-04T17:47:48.595Z,45.33
2023-01-04T17:50:18.270Z,35.92
2023-01-04T17:52:47.605Z,46.13
2023-01-04T17:55:16.119Z,29.92
2023-01-04T17:57:45.831Z,28.08
2023-01-04T18:00:14.966Z,34.08
2023-01-04T18:02:43.727Z,35.53
2023-01-04T18:05:11.980Z,30.95
2023-01-04T18:07:39.944Z,38.67
2023-01-04T18:10:20.764Z,36.92
2023-01-04T18:12:56.358Z,34.58
2023-01-04T18:15:24.457Z,42.22
2023-01-04T18:17:52.391Z,49.33
2023-01-04T18:20:25.157Z,29.92
2023-01-04T18:22:53.236Z,39.83
2023-01-04T18:25:21.053Z,28.58
2023-01-04T18:27:48.981Z,39.38
2023-01-04T18:30:18.995Z,44.45
2023-01-04T18:32:46.894Z,32.53
2023-01-04T18:35:15.028Z,33.08
2023-01-04T18:37:45.140Z,29.60
2023-01-04T18:40:13.659Z,35.47
2023-01-04T18:42:41.831Z,45.92
2023-01-04T18:45:10.305Z,36.80
2023-01-04T18:47:39.662Z,31.50
2023-01-04T18:50:08.196Z,27.35
2023-01-04T18:52:37.142Z,31.35
2023-01-04T18:55:06.353Z,33.13
2023-01-04T18:57:34.345Z,33.28
2023-01-04T19:00:04.288Z,26.30
2023-01-04T19:02:32.568Z,28.45
2023-01-04T19:05:02.186Z,38.58
2023-01-04T19:07:30.186Z,30.52
2023-01-04T19:09:58.107Z,37.25
2023-01-04T19:12:26.295Z,35.10
2023-01-04T19:14:54.196Z,50.25
2023-01-04T19:17:24.601Z,34.17
2023-01-04T19:19:52.881Z,34.95
2023-01-04T19:22:22.132Z,40.75
2023-01-04T19:24:50.180Z,41.30
2023-01-04T19:27:19.435Z,37.17
2023-01-04T19:29:47.502Z,30.52
2023-01-04T19:32:19.228Z,37.75
2023-01-04T19:34:47.135Z,41.78
2023-01-04T19:37:14.994Z,42.40
2023-01-04T19:39:44.248Z,33.25
2023-01-04T19:42:12.312Z,32.22
2023-01-04T19:44:40.261Z,39.00
2023-01-04T19:47:08.194Z,43.42
2023-01-04T19:49:36.148Z,33.72
2023-01-04T19:52:04.236Z,31.48
2023-01-04T19:54:32.409Z,27.55
2023-01-04T19:57:01.807Z,39.90
2023-01-04T19:59:30.272Z,38.65
2023-01-04T20:01:58.822Z,48.22
2023-01-04T20:04:27.752Z,33.38
2023-01-04T20:06:55.948Z,40.63
2023-01-04T20:09:27.547Z,37.17
2023-01-04T20:11:55.659Z,49.05
2023-01-04T20:14:25.011Z,40.72
2023-01-04T20:16:53.223Z,43.55
2023-01-04T20:19:21.649Z,39.40
2023-01-04T20:21:49.776Z,40.15
2023-01-04T20:24:17.849Z,42.63
2023-01-04T20:26:46.707Z,45.63
2023-01-04T20:29:14.808Z,48.28
2023-01-04T20:31:45.942Z,48.63
2023-01-04T20:34:14.830Z,35.13
2023-01-04T20:36:43.093Z,47.67
2023-01-04T20:39:11.227Z,41.22
2023-01-04T20:41:59.811Z,47.05
2023-01-04T20:44:27.033Z,34.40
2023-01-04T20:46:56.779Z,46.53
2023-01-04T20:49:25.037Z,41.05
2023-01-04T20:51:53.051Z,40.13
2023-01-04T20:54:21.183Z,29.95
2023-01-04T20:56:49.427Z,44.38
2023-01-04T20:59:17.921Z,38.72
2023-01-04T21:01:45.968Z,44.95
2023-01-04T21:04:17.932Z,49.47
2023-01-04T21:06:45.974Z,51.40
2023-01-04T21:09:14.366Z,40.45
2023-01-04T21:11:45.688Z,39.95
2023-01-04T21:14:14.511Z,39.95
2023-01-04T21:16:42.651Z,34.80
2023-01-04T21:19:10.984Z,47.53
2023-01-04T21:21:40.689Z,45.13
2023-01-04T21:24:09.915Z,32.08
2023-01-04T21:26:38.242Z,42.45
2023-01-04T21:29:08.148Z,52.33
2023-01-04T21:31:36.323Z,43.17
2023-01-04T21:34:12.860Z,43.17
2023-01-04T21:36:43.952Z,45.45
2023-01-04T21:39:12.009Z,44.50
2023-01-04T21:41:46.015Z,56.78
2023-01-04T21:44:16.452Z,42.60
2023-01-04T21:46:44.483Z,39.85
2023-01-04T21:49:13.441Z,42.83
2023-01-04T21:51:41.417Z,43.33
2023-01-04T21:54:10.820Z,38.30
2023-01-04T21:56:39.495Z,39.65
2023-01-04T21:59:07.534Z,37.58
2023-01-04T22:01:36.003Z,34.92
2023-01-04T22:04:05.600Z,36.00
2023-01-04T22:06:37.562Z,44.03
2023-01-04T22:09:07.131Z,43.22
2023-01-04T22:11:37.469Z,41.05
2023-01-04T22:14:06.136Z,43.88
2023-01-04T22:16:34.440Z,40.17
2023-01-04T22:19:02.652Z,43.35
2023-01-04T22:21:30.963Z,41.13
2023-01-04T22:23:59.203Z,36.67
2023-01-04T22:26:27.689Z,37.05
2023-01-04T22:28:57.629Z,48.55
2023-01-04T22:31:25.570Z,35.20
2023-01-04T22:33:53.695Z,37.88
2023-01-04T22:36:23.605Z,38.22
2023-01-04T22:38:52.613Z,33.00
2023-01-04T22:41:22.247Z,47.53
2023-01-04T22:43:56.607Z,31.65
2023-01-04T22:46:27.837Z,32.28
2023-01-04T22:48:56.713Z,40.05
2023-01-04T22:51:27.491Z,41.08
2023-01-04T22:53:56.633Z,46.60
2023-01-04T22:56:25.522Z,32.85
2023-01-04T22:58:55.571Z,36.50
2023-01-04T23:01:26.486Z,41.03
2023-01-04T23:03:55.534Z,38.17
2023-01-04T23:06:25.240Z,28.17
2023-01-04T23:08:57.747Z,40.42
2023-01-04T23:11:26.584Z,41.55
2023-01-04T23:13:55.195Z,43.30
2023-01-04T23:16:31.990Z,29.50
2023-01-04T23:19:00.874Z,39.67
2023-01-04T23:21:28.995Z,36.97
2023-01-04T23:23:56.962Z,29.75
2023-01-04T23:26:26.368Z,39.55
2023-01-04T23:28:54.314Z,35.53
2023-01-04T23:31:26.298Z,40.83
2023-01-04T23:33:56.418Z,30.33
2023-01-04T23:36:26.155Z,37.00
2023-01-04T23:38:55.897Z,26.83
2023-01-04T23:41:44.177Z,34.78
2023-01-04T23:44:13.991Z,20.88
2023-01-04T23:46:44.136Z,37.17
2023-01-04T23:49:12.878Z,26.88
2023-01-04T23:51:42.468Z,24.35
2023-01-04T23:54:10.770Z,34.08
2023-01-04T23:56:39.309Z,28.85
2023-01-04T23:59:08.020Z,29.50
